Time;durP1;ratioP1;P1;durP2;ratioP2;P2;SDS_P1;SDS_P2;PMS_P1;PMS_P2;Temp;Humidity;BMP_temperature;BMP_pressure;BME280_temperature;BME280_humidity;BME280_pressure;Samples;Min_cycle;Max_cycle;Signal;HPM_P1;HPM_P2
2022/05/25 00:00:09;;;;;;;1.70;1.48;;;15.70;99.30;;;;;;2096225;28;20483;-69
2022/05/25 00:01:10;;;;;;;2.50;1.40;;;15.70;99.40;;;;;;2096531;28;20029;-69
2022/05/25 00:02:11;;;;;;;2.53;1.50;;;15.60;99.40;;;;;;2096449;28;20048;-70
2022/05/25 00:03:12;;;;;;;1.85;1.35;;;15.60;99.40;;;;;;2095791;28;20115;-69
2022/05/25 00:04:13;;;;;;;2.67;1.38;;;15.60;99.40;;;;;;2095924;28;20037;-70
2022/05/25 00:05:15;;;;;;;1.77;1.17;;;15.60;99.40;;;;;;2096278;28;20467;-69
2022/05/25 00:06:16;;;;;;;1.30;1.20;;;15.60;99.40;;;;;;2095215;28;20471;-70
2022/05/25 00:07:18;;;;;;;1.60;1.30;;;15.60;99.50;;;;;;2096025;28;20025;-70
2022/05/25 00:08:19;;;;;;;1.60;1.50;;;15.60;99.60;;;;;;2096462;28;20033;-70
2022/05/25 00:09:20;;;;;;;3.20;1.48;;;15.60;99.90;;;;;;2096717;28;20028;-69
2022/05/25 00:10:21;;;;;;;3.63;1.55;;;15.60;99.90;;;;;;2095955;28;20081;-69
2022/05/25 00:11:22;;;;;;;1.40;1.20;;;15.60;99.90;;;;;;2096211;28;20145;-69
2022/05/25 00:12:22;;;;;;;1.75;1.45;;;15.60;99.90;;;;;;2096823;28;20024;-70
2022/05/25 00:13:23;;;;;;;1.67;1.40;;;15.60;99.90;;;;;;2096745;28;20030;-69
2022/05/25 00:14:24;;;;;;;1.77;1.20;;;15.60;99.90;;;;;;2096712;28;20024;-69
2022/05/25 00:15:25;;;;;;;1.95;1.30;;;15.60;99.90;;;;;;2096067;28;20677;-69
2022/05/25 00:16:26;;;;;;;3.25;1.30;;;15.60;99.90;;;;;;2096089;28;20115;-69
2022/05/25 00:17:26;;;;;;;1.30;1.20;;;15.60;99.90;;;;;;2096789;28;20457;-70
2022/05/25 00:18:27;;;;;;;1.40;1.30;;;15.60;99.90;;;;;;2096327;28;20024;-70
2022/05/25 00:20:46;;;;;;;2.67;1.50;;;15.50;99.90;;;;;;2096297;28;20113;-70
2022/05/25 00:21:47;;;;;;;1.55;1.42;;;15.50;99.90;;;;;;2096428;28;20490;-70
2022/05/25 00:22:51;;;;;;;3.22;1.50;;;15.50;99.90;;;;;;2096438;28;20093;-70
2022/05/25 00:23:51;;;;;;;2.50;1.50;;;15.50;99.90;;;;;;2096462;28;20029;-70
2022/05/25 00:24:56;;;;;;;1.77;1.25;;;15.40;99.90;;;;;;2096470;28;20086;-69
2022/05/25 00:25:57;;;;;;;1.40;1.30;;;15.40;99.90;;;;;;2096383;28;20028;-70
2022/05/25 00:26:57;;;;;;;2.35;1.40;;;15.40;99.90;;;;;;2095705;28;20040;-69
2022/05/25 00:28:13;;;;;;;1.30;1.20;;;15.40;99.90;;;;;;2095429;28;20032;-70
2022/05/25 00:29:14;;;;;;;1.50;1.40;;;15.40;99.90;;;;;;2096452;28;20029;-69
2022/05/25 00:30:16;;;;;;;1.42;1.30;;;15.40;99.90;;;;;;2096237;28;20024;-68
2022/05/25 00:31:17;;;;;;;1.55;1.45;;;15.40;99.90;;;;;;2095710;28;20037;-69
2022/05/25 00:32:17;;;;;;;1.42;1.33;;;15.30;99.90;;;;;;2095755;28;20056;-71
2022/05/25 00:33:20;;;;;;;2.13;1.30;;;15.30;99.90;;;;;;2096232;28;20108;-69
2022/05/25 00:34:21;;;;;;;1.83;1.40;;;15.30;99.90;;;;;;2096242;28;20032;-69
2022/05/25 00:35:23;;;;;;;1.63;1.40;;;15.30;99.90;;;;;;2095608;28;20029;-68
2022/05/25 00:36:24;;;;;;;2.97;1.58;;;15.30;99.90;;;;;;2095495;28;20031;-69
2022/05/25 00:37:25;;;;;;;2.60;1.50;;;15.30;99.90;;;;;;2096419;28;20387;-68
2022/05/25 00:38:26;;;;;;;2.08;1.45;;;15.30;99.90;;;;;;2095352;28;20052;-69
2022/05/25 00:39:27;;;;;;;1.50;1.40;;;15.30;99.90;;;;;;2095669;28;20028;-70
2022/05/25 00:40:51;;;;;;;1.60;1.50;;;15.30;99.90;;;;;;2095536;28;20036;-70
2022/05/25 00:41:51;;;;;;;2.50;1.40;;;15.30;99.90;;;;;;2097577;28;20025;-71
2022/05/25 00:42:52;;;;;;;3.85;1.80;;;15.30;99.90;;;;;;2103589;28;20645;-69
2022/05/25 00:43:52;;;;;;;3.78;1.55;;;15.30;99.90;;;;;;2103049;28;20633;-69
2022/05/25 00:44:53;;;;;;;3.50;1.67;;;15.40;99.90;;;;;;2102116;28;20483;-71
2022/05/25 00:45:59;;;;;;;2.25;1.60;;;15.40;99.90;;;;;;2096621;28;20028;-70
2022/05/25 00:47:00;;;;;;;1.60;1.50;;;15.40;99.90;;;;;;2096453;28;20104;-69
2022/05/25 00:48:02;;;;;;;1.75;1.40;;;15.40;99.90;;;;;;2096016;28;20094;-71
2022/05/25 00:49:06;;;;;;;2.53;1.60;;;15.30;99.90;;;;;;2095524;28;20106;-69
2022/05/25 00:50:11;;;;;;;2.05;1.70;;;15.40;99.90;;;;;;2095640;28;20414;-69
2022/05/25 00:51:21;;;;;;;1.90;1.58;;;15.40;99.90;;;;;;2096270;28;20415;-68
2022/05/25 00:52:22;;;;;;;2.42;1.55;;;15.40;99.90;;;;;;2095810;28;20028;-68
2022/05/25 00:53:22;;;;;;;1.67;1.52;;;15.30;99.90;;;;;;2095688;28;20024;-68
2022/05/25 00:54:36;;;;;;;2.10;1.90;;;15.30;99.90;;;;;;2096449;28;20028;-70
2022/05/25 00:55:37;;;;;;;2.13;1.73;;;15.30;99.90;;;;;;2095427;28;20028;-70
2022/05/25 00:56:42;;;;;;;3.35;1.77;;;15.30;99.90;;;;;;2095715;28;20024;-69
2022/05/25 00:57:45;;;;;;;2.45;1.60;;;15.30;99.90;;;;;;2096229;28;20621;-68
2022/05/25 00:59:16;;;;;;;2.15;1.80;;;15.20;99.90;;;;;;2096461;28;20037;-68
2022/05/25 01:00:20;;;;;;;2.88;1.67;;;15.20;99.90;;;;;;2096032;28;20055;-70
2022/05/25 01:01:21;;;;;;;2.20;1.70;;;15.20;99.90;;;;;;2096375;28;20605;-68
2022/05/25 01:02:22;;;;;;;2.00;1.67;;;15.10;99.90;;;;;;2096340;28;20024;-69
2022/05/25 01:03:22;;;;;;;1.98;1.70;;;15.10;99.90;;;;;;2096287;28;20444;-69
2022/05/25 01:04:24;;;;;;;2.33;1.60;;;15.10;99.90;;;;;;2096253;28;20059;-69
2022/05/25 01:05:32;;;;;;;2.15;1.70;;;15.10;99.90;;;;;;2096247;28;20494;-70
2022/05/25 01:06:47;;;;;;;2.28;1.70;;;15.00;99.90;;;;;;2096232;28;20143;-69
2022/05/25 01:08:20;;;;;;;3.63;1.70;;;15.00;99.90;;;;;;2095957;28;20036;-69
2022/05/25 01:09:44;;;;;;;2.28;1.60;;;15.00;99.90;;;;;;2096293;28;20393;-69
2022/05/25 01:11:04;;;;;;;2.05;1.77;;;15.00;99.90;;;;;;2096269;28;20649;-68
2022/05/25 01:12:23;;;;;;;2.50;2.10;;;14.90;99.90;;;;;;2096457;28;20037;-68
2022/05/25 01:13:25;;;;;;;3.20;2.17;;;14.90;99.90;;;;;;2096346;28;20037;-69
2022/05/25 01:14:49;;;;;;;3.65;2.30;;;14.90;99.90;;;;;;2096351;28;20090;-69
2022/05/25 01:16:23;;;;;;;2.35;2.15;;;14.90;99.90;;;;;;2096640;28;20059;-69
2022/05/25 01:17:34;;;;;;;4.47;2.38;;;14.90;99.90;;;;;;2096237;28;20173;-69
2022/05/25 01:18:45;;;;;;;2.83;2.08;;;14.90;99.90;;;;;;2096011;28;20448;-68
2022/05/25 01:20:06;;;;;;;2.92;2.10;;;14.80;99.90;;;;;;2096146;28;20037;-69
2022/05/25 01:21:22;;;;;;;3.80;2.15;;;14.80;99.90;;;;;;2096125;28;20025;-69
2022/05/25 01:22:34;;;;;;;2.78;2.20;;;14.80;99.90;;;;;;2095402;28;20115;-69
2022/05/25 01:23:49;;;;;;;3.13;2.20;;;14.80;99.90;;;;;;2095652;28;20550;-69
2022/05/25 01:25:02;;;;;;;4.70;2.20;;;14.80;99.90;;;;;;2096055;28;20116;-69
2022/05/25 01:26:30;;;;;;;2.30;2.05;;;14.80;99.90;;;;;;2096120;28;20136;-69
2022/05/25 01:27:37;;;;;;;3.88;2.08;;;14.80;99.90;;;;;;2096095;28;20044;-69
2022/05/25 01:28:53;;;;;;;3.75;2.25;;;14.70;99.90;;;;;;2096124;28;20025;-69
2022/05/25 01:30:03;;;;;;;2.90;2.10;;;14.70;99.90;;;;;;2095237;28;20024;-70
2022/05/25 01:31:10;;;;;;;3.47;2.50;;;14.70;99.90;;;;;;2095604;28;20495;-70
2022/05/25 01:32:31;;;;;;;3.53;2.03;;;14.70;99.90;;;;;;2095558;28;20032;-70
2022/05/25 01:33:54;;;;;;;3.20;2.30;;;14.70;99.90;;;;;;2095919;28;20103;-68
2022/05/25 01:35:12;;;;;;;3.17;2.30;;;14.70;99.90;;;;;;2096118;28;20096;-69
2022/05/25 01:36:25;;;;;;;3.63;2.58;;;14.70;99.90;;;;;;2096114;28;20025;-70
2022/05/25 01:37:58;;;;;;;2.65;2.40;;;14.70;99.90;;;;;;2087061;28;20021;-68
2022/05/25 01:39:05;;;;;;;3.03;2.28;;;14.70;99.90;;;;;;2091762;28;20803;-69
2022/05/25 01:40:08;;;;;;;2.92;2.00;;;14.70;99.90;;;;;;2095926;28;20110;-68
2022/05/25 01:41:25;;;;;;;3.22;2.03;;;14.70;99.90;;;;;;2095299;28;20526;-68
2022/05/25 01:42:30;;;;;;;3.33;2.28;;;14.80;99.90;;;;;;2095457;28;20055;-68
2022/05/25 01:43:47;;;;;;;3.05;2.20;;;14.80;99.90;;;;;;2095572;28;20025;-69
2022/05/25 01:44:59;;;;;;;2.50;2.30;;;14.70;99.90;;;;;;2096230;28;20470;-68
2022/05/25 01:46:07;;;;;;;4.47;2.80;;;14.70;99.90;;;;;;2096198;28;20182;-68
2022/05/25 01:47:10;;;;;;;4.75;3.20;;;14.70;99.90;;;;;;2096142;28;20024;-69
2022/05/25 01:48:15;;;;;;;4.97;3.60;;;14.70;99.90;;;;;;2096007;28;20048;-69
2022/05/25 01:49:22;;;;;;;7.30;3.80;;;14.70;99.90;;;;;;2095542;28;20028;-70
2022/05/25 01:50:29;;;;;;;6.60;4.30;;;14.60;99.90;;;;;;2095419;28;20024;-70
2022/05/25 01:51:43;;;;;;;5.80;4.00;;;14.60;99.90;;;;;;2095602;28;20029;-70
2022/05/25 01:52:48;;;;;;;7.90;4.47;;;14.60;99.90;;;;;;2095781;28;20062;-71
2022/05/25 01:53:58;;;;;;;7.18;4.70;;;14.60;99.90;;;;;;2097096;28;20111;-69
2022/05/25 01:55:05;;;;;;;7.45;5.03;;;14.60;99.90;;;;;;2097384;28;20078;-70
2022/05/25 01:56:08;;;;;;;7.40;4.88;;;14.60;99.90;;;;;;2095712;28;20039;-70
2022/05/25 01:57:12;;;;;;;7.68;4.80;;;14.60;99.90;;;;;;2095471;28;20058;-70
2022/05/25 01:58:16;;;;;;;7.28;4.82;;;14.60;99.90;;;;;;2095293;28;20044;-70
2022/05/25 01:59:18;;;;;;;7.22;4.72;;;14.50;99.90;;;;;;2096123;28;20048;-69
2022/05/25 02:00:37;;;;;;;8.70;5.45;;;14.60;99.90;;;;;;2095914;28;20062;-69
2022/05/25 02:01:48;;;;;;;8.65;5.25;;;14.60;99.90;;;;;;2097252;28;20032;-70
2022/05/25 02:04:20;;;;;;;8.20;5.13;;;14.50;99.90;;;;;;2096847;28;20062;-69
2022/05/25 02:05:22;;;;;;;6.13;4.60;;;14.50;99.90;;;;;;2096417;28;20032;-69
2022/05/25 02:06:54;;;;;;;6.30;4.95;;;14.50;99.90;;;;;;2095627;28;20036;-70
2022/05/25 02:08:22;;;;;;;7.75;4.95;;;14.50;99.90;;;;;;2096201;28;20028;-70
2022/05/25 02:09:38;;;;;;;8.30;4.85;;;14.40;99.90;;;;;;2096262;28;20032;-69
2022/05/25 02:10:53;;;;;;;7.47;4.75;;;14.40;99.90;;;;;;2096256;28;20041;-69
2022/05/25 02:12:32;;;;;;;6.10;4.80;;;14.40;99.90;;;;;;2097014;28;20036;-69
2022/05/25 02:14:03;;;;;;;6.93;4.72;;;14.50;99.90;;;;;;2094646;28;20036;-70
2022/05/25 02:15:34;;;;;;;6.05;4.28;;;14.50;99.90;;;;;;2096942;28;20397;-70
2022/05/25 02:17:02;;;;;;;6.50;4.10;;;14.40;99.90;;;;;;2097173;28;20044;-70
2022/05/25 02:18:10;;;;;;;5.28;4.05;;;14.40;99.90;;;;;;2097070;28;20040;-69
2022/05/25 02:19:21;;;;;;;5.00;4.25;;;14.50;99.90;;;;;;2097261;28;20124;-70
2022/05/25 02:20:33;;;;;;;4.55;3.78;;;14.50;99.90;;;;;;2096562;28;20036;-69
2022/05/25 02:21:42;;;;;;;5.10;3.90;;;14.50;99.90;;;;;;2097210;28;20132;-67
2022/05/25 02:22:47;;;;;;;6.63;3.95;;;14.50;99.90;;;;;;2096550;28;20031;-69
2022/05/25 02:23:55;;;;;;;4.22;3.63;;;14.50;99.90;;;;;;2095381;28;20059;-70
2022/05/25 02:25:25;;;;;;;5.93;4.00;;;14.50;99.90;;;;;;2095672;28;20039;-69
2022/05/25 02:26:38;;;;;;;4.95;3.97;;;14.50;99.90;;;;;;2095044;28;20072;-69
2022/05/25 02:27:46;;;;;;;5.00;4.00;;;14.50;99.90;;;;;;2095990;28;20045;-70
2022/05/25 02:28:59;;;;;;;5.25;3.85;;;14.50;99.90;;;;;;2095704;28;20029;-70
2022/05/25 02:30:03;;;;;;;5.22;3.95;;;14.50;99.90;;;;;;2096762;28;20029;-69
2022/05/25 02:31:08;;;;;;;4.65;4.07;;;14.50;99.90;;;;;;2097798;28;20039;-68
2022/05/25 02:32:21;;;;;;;4.75;3.88;;;14.50;99.90;;;;;;2097622;28;20111;-69
2022/05/25 02:33:28;;;;;;;5.15;3.90;;;14.50;99.90;;;;;;2097074;28;20027;-70
2022/05/25 02:34:31;;;;;;;4.85;3.80;;;14.50;99.90;;;;;;2098106;28;20032;-70
2022/05/25 02:35:34;;;;;;;5.70;4.20;;;14.50;99.90;;;;;;2098504;28;20414;-69
2022/05/25 02:36:37;;;;;;;5.43;4.15;;;14.50;99.90;;;;;;2097814;28;20033;-69
2022/05/25 02:37:38;;;;;;;5.18;3.60;;;14.40;99.90;;;;;;2097465;28;20037;-69
2022/05/25 02:38:41;;;;;;;5.63;3.92;;;14.50;99.90;;;;;;2097361;28;20028;-69
2022/05/25 02:39:43;;;;;;;5.75;3.65;;;14.40;99.90;;;;;;2097215;28;20031;-70
2022/05/25 02:40:44;;;;;;;4.80;3.65;;;14.40;99.90;;;;;;2097411;28;20036;-69
2022/05/25 02:41:50;;;;;;;5.25;3.70;;;14.50;99.90;;;;;;2097724;28;20063;-69
2022/05/25 02:42:51;;;;;;;6.15;4.10;;;14.50;99.90;;;;;;2097921;28;20044;-69
2022/05/25 02:43:52;;;;;;;5.13;3.83;;;14.50;99.90;;;;;;2097955;28;20116;-70
2022/05/25 02:44:53;;;;;;;4.70;3.75;;;14.40;99.90;;;;;;2098073;28;20028;-70
2022/05/25 02:45:53;;;;;;;4.88;3.63;;;14.40;99.90;;;;;;2098362;28;20025;-70
2022/05/25 02:46:54;;;;;;;6.07;3.80;;;14.40;99.90;;;;;;2099115;28;20655;-70
2022/05/25 02:47:54;;;;;;;4.25;3.45;;;14.50;99.90;;;;;;2100703;28;20088;-69
2022/05/25 02:48:55;;;;;;;4.57;3.40;;;14.50;99.90;;;;;;2101524;28;20020;-69
2022/05/25 02:49:56;;;;;;;4.38;3.50;;;14.50;99.90;;;;;;2104214;28;20029;-68
2022/05/25 02:50:56;;;;;;;5.00;3.67;;;14.40;99.90;;;;;;2105126;28;20059;-69
2022/05/25 02:51:57;;;;;;;4.53;3.40;;;14.40;99.90;;;;;;2105019;28;20524;-69
2022/05/25 02:52:57;;;;;;;3.47;3.00;;;14.40;99.90;;;;;;2105052;28;20575;-68
2022/05/25 02:53:58;;;;;;;4.00;3.20;;;14.40;99.90;;;;;;2105276;28;20021;-69
2022/05/25 02:54:59;;;;;;;3.72;3.10;;;14.40;99.90;;;;;;2104631;28;20056;-69
2022/05/25 02:55:59;;;;;;;3.40;2.85;;;14.40;99.90;;;;;;2103216;28;20092;-68
2022/05/25 02:57:00;;;;;;;4.00;3.20;;;14.40;99.90;;;;;;2097480;28;20024;-69
2022/05/25 02:58:02;;;;;;;4.40;3.00;;;14.40;99.90;;;;;;2097332;28;20031;-70
2022/05/25 02:59:03;;;;;;;3.70;2.90;;;14.40;99.90;;;;;;2097305;28;20036;-70
2022/05/25 03:00:05;;;;;;;3.30;3.00;;;14.40;99.90;;;;;;2096558;28;20127;-70
2022/05/25 03:01:06;;;;;;;4.05;2.92;;;14.40;99.90;;;;;;2096642;28;20052;-70
2022/05/25 03:02:07;;;;;;;4.63;2.90;;;14.40;99.90;;;;;;2097417;28;20363;-69
2022/05/25 03:03:07;;;;;;;4.13;3.28;;;14.40;99.90;;;;;;2096951;28;20391;-72
2022/05/25 03:04:08;;;;;;;3.40;2.92;;;14.40;99.90;;;;;;2097259;28;20571;-72
2022/05/25 03:05:10;;;;;;;3.30;3.00;;;14.40;99.90;;;;;;2096830;28;20032;-72
2022/05/25 03:06:10;;;;;;;3.72;3.10;;;14.40;99.90;;;;;;2096939;28;20020;-72
2022/05/25 03:07:12;;;;;;;3.28;2.95;;;14.40;99.90;;;;;;2097353;28;20062;-72
2022/05/25 03:08:13;;;;;;;4.28;2.75;;;14.40;99.90;;;;;;2096976;28;20090;-73
2022/05/25 03:09:14;;;;;;;3.58;2.90;;;14.40;99.90;;;;;;2096640;28;20103;-72
2022/05/25 03:10:15;;;;;;;3.97;3.03;;;14.40;99.90;;;;;;2096417;28;20115;-73
2022/05/25 03:11:15;;;;;;;3.78;3.13;;;14.40;99.90;;;;;;2097249;28;20024;-72
2022/05/25 03:12:16;;;;;;;3.28;2.70;;;14.40;99.90;;;;;;2096629;28;20028;-73
2022/05/25 03:13:16;;;;;;;4.07;2.90;;;14.40;99.90;;;;;;2096585;28;20087;-73
2022/05/25 03:14:17;;;;;;;3.33;2.85;;;14.40;99.90;;;;;;2097324;28;20029;-73
2022/05/25 03:15:20;;;;;;;4.05;2.83;;;14.30;99.90;;;;;;2097381;28;20067;-73
2022/05/25 03:16:22;;;;;;;5.70;3.00;;;14.30;99.90;;;;;;2097255;28;20060;-72
2022/05/25 03:17:23;;;;;;;3.20;2.90;;;14.30;99.90;;;;;;2098081;28;20039;-74
2022/05/25 03:18:24;;;;;;;3.35;2.80;;;14.30;99.90;;;;;;2097930;28;20123;-74
2022/05/25 03:19:25;;;;;;;3.83;2.85;;;14.30;99.90;;;;;;2097321;28;20036;-73
2022/05/25 03:20:27;;;;;;;5.00;3.00;;;14.40;99.90;;;;;;2097050;28;20123;-74
2022/05/25 03:21:27;;;;;;;3.08;2.70;;;14.30;99.90;;;;;;2097154;28;20111;-74
2022/05/25 03:22:28;;;;;;;3.80;2.85;;;14.40;99.90;;;;;;2097160;28;20028;-71
2022/05/25 03:23:29;;;;;;;3.10;2.80;;;14.40;99.90;;;;;;2097262;28;20583;-72
2022/05/25 03:24:29;;;;;;;3.00;2.63;;;14.40;99.90;;;;;;2097171;28;20449;-72
2022/05/25 03:25:30;;;;;;;3.50;2.92;;;14.40;99.90;;;;;;2097230;28;20032;-72
2022/05/25 03:26:31;;;;;;;3.83;2.85;;;14.40;99.90;;;;;;2097259;28;20024;-72
2022/05/25 03:27:32;;;;;;;3.35;2.97;;;14.50;99.90;;;;;;2096845;28;20784;-70
2022/05/25 03:28:32;;;;;;;3.67;2.85;;;14.50;99.90;;;;;;2097085;28;20043;-71
2022/05/25 03:29:33;;;;;;;6.28;3.08;;;14.50;99.90;;;;;;2096422;28;20051;-72
2022/05/25 03:30:34;;;;;;;3.22;2.70;;;14.50;99.90;;;;;;2096446;28;20380;-73
2022/05/25 03:31:36;;;;;;;3.30;2.88;;;14.50;99.90;;;;;;2096939;28;20040;-72
2022/05/25 03:32:36;;;;;;;3.38;2.70;;;14.50;99.90;;;;;;2096953;28;20025;-72
2022/05/25 03:33:37;;;;;;;3.40;2.70;;;14.50;99.90;;;;;;2097158;28;20032;-73
2022/05/25 03:34:38;;;;;;;4.20;2.65;;;14.60;99.90;;;;;;2097052;28;20467;-73
2022/05/25 03:35:38;;;;;;;4.82;2.92;;;14.50;99.90;;;;;;2097087;28;20063;-73
2022/05/25 03:36:39;;;;;;;4.93;3.10;;;14.50;99.90;;;;;;2096994;28;20107;-71
2022/05/25 03:37:40;;;;;;;3.75;2.97;;;14.50;99.90;;;;;;2096857;28;20082;-72
2022/05/25 03:38:40;;;;;;;4.30;3.00;;;14.60;99.90;;;;;;2096827;28;20498;-72
2022/05/25 03:39:41;;;;;;;4.70;3.20;;;14.60;99.90;;;;;;2097031;28;20046;-71
2022/05/25 03:40:42;;;;;;;3.65;2.97;;;14.60;99.90;;;;;;2096287;28;20028;-74
2022/05/25 03:41:42;;;;;;;3.58;2.95;;;14.60;99.90;;;;;;2096780;28;20035;-72
2022/05/25 03:42:45;;;;;;;3.38;3.05;;;14.60;99.90;;;;;;2097073;28;20033;-71
2022/05/25 03:43:46;;;;;;;4.90;3.03;;;14.70;99.90;;;;;;2096276;28;20040;-73
2022/05/25 03:44:47;;;;;;;4.63;3.25;;;14.70;99.90;;;;;;2096305;28;20028;-72
2022/05/25 03:45:47;;;;;;;4.63;3.40;;;14.70;99.90;;;;;;2096913;28;20029;-72
2022/05/25 03:46:50;;;;;;;5.20;3.30;;;14.70;99.90;;;;;;2096230;28;20404;-73
2022/05/25 03:47:50;;;;;;;5.38;3.58;;;14.70;99.90;;;;;;2096111;28;20020;-73
2022/05/25 03:48:51;;;;;;;4.97;3.50;;;14.70;99.90;;;;;;2096734;28;20119;-73
2022/05/25 03:49:52;;;;;;;4.10;3.25;;;14.70;99.90;;;;;;2096779;28;20071;-73
2022/05/25 03:50:52;;;;;;;6.55;3.00;;;14.80;99.90;;;;;;2097854;28;20050;-74
2022/05/25 03:51:53;;;;;;;5.88;3.40;;;14.70;99.90;;;;;;2097677;28;20025;-72
2022/05/25 03:52:54;;;;;;;5.80;3.17;;;14.80;99.90;;;;;;2089277;28;20099;-74
2022/05/25 03:53:55;;;;;;;6.25;3.30;;;14.80;99.90;;;;;;2089948;28;20122;-74
2022/05/25 03:54:55;;;;;;;4.88;3.33;;;14.80;99.90;;;;;;2098314;28;20074;-72
2022/05/25 03:55:56;;;;;;;5.28;2.97;;;14.80;99.90;;;;;;2098227;28;20037;-73
2022/05/25 03:56:57;;;;;;;4.90;3.35;;;14.90;99.90;;;;;;2098679;28;20107;-73
2022/05/25 03:57:58;;;;;;;9.50;3.72;;;14.90;99.90;;;;;;2097502;28;20032;-73
2022/05/25 03:58:58;;;;;;;7.30;3.50;;;15.00;99.90;;;;;;2097350;28;20044;-74
2022/05/25 03:59:59;;;;;;;5.55;3.50;;;15.00;99.90;;;;;;2097546;28;20115;-74
2022/05/25 04:00:59;;;;;;;5.63;3.25;;;15.00;99.90;;;;;;2096673;28;20025;-73
2022/05/25 04:02:01;;;;;;;5.50;3.20;;;15.00;99.90;;;;;;2096709;28;20025;-73
2022/05/25 04:03:02;;;;;;;5.00;3.35;;;15.00;99.90;;;;;;2097113;28;20037;-72
2022/05/25 04:04:04;;;;;;;4.88;3.30;;;15.10;99.90;;;;;;2097722;28;20032;-73
2022/05/25 04:05:08;;;;;;;6.78;3.28;;;15.10;99.90;;;;;;2097812;28;20024;-74
2022/05/25 04:06:08;;;;;;;4.75;3.25;;;15.10;99.90;;;;;;2097732;28;20489;-74
2022/05/25 04:07:09;;;;;;;6.38;3.28;;;15.20;99.90;;;;;;2097157;28;20024;-72
2022/05/25 04:08:10;;;;;;;3.50;2.85;;;15.20;99.90;;;;;;2096746;28;20032;-73
2022/05/25 04:09:11;;;;;;;4.70;3.08;;;15.30;99.90;;;;;;2097992;28;20077;-73
2022/05/25 04:10:17;;;;;;;7.45;3.10;;;15.30;99.90;;;;;;2097933;28;20028;-72
2022/05/25 04:11:18;;;;;;;4.15;2.80;;;15.40;99.90;;;;;;2098162;28;20500;-73
2022/05/25 04:12:19;;;;;;;5.38;3.33;;;15.40;99.90;;;;;;2097055;28;20074;-72
2022/05/25 04:13:21;;;;;;;5.30;2.90;;;15.50;99.90;;;;;;2096504;28;20447;-72
2022/05/25 04:14:21;;;;;;;3.40;2.83;;;15.50;99.90;;;;;;2096588;28;20550;-73
2022/05/25 04:15:25;;;;;;;5.72;2.85;;;15.50;99.90;;;;;;2096695;28;20033;-72
2022/05/25 04:16:26;;;;;;;4.93;3.08;;;15.50;99.90;;;;;;2096567;28;20599;-72
2022/05/25 04:17:26;;;;;;;5.97;3.42;;;15.60;99.90;;;;;;2096561;28;20021;-72
2022/05/25 04:18:27;;;;;;;3.53;3.15;;;15.60;99.90;;;;;;2096228;28;20027;-72
2022/05/25 04:19:27;;;;;;;4.05;2.97;;;15.60;99.90;;;;;;2097234;28;20052;-73
2022/05/25 04:20:29;;;;;;;3.40;2.80;;;15.80;99.90;;;;;;2097419;28;20032;-73
2022/05/25 04:21:30;;;;;;;4.95;3.15;;;15.90;99.90;;;;;;2097659;28;20021;-73
2022/05/25 04:22:32;;;;;;;4.57;3.13;;;16.10;99.90;;;;;;2096307;28;20509;-72
2022/05/25 04:23:34;;;;;;;5.00;3.13;;;16.20;99.90;;;;;;2095929;28;20025;-73
2022/05/25 04:24:34;;;;;;;3.83;3.13;;;16.40;99.90;;;;;;2095594;28;20025;-73
2022/05/25 04:25:35;;;;;;;3.78;3.13;;;16.70;99.90;;;;;;2087679;28;20033;-72
2022/05/25 04:26:35;;;;;;;5.43;3.10;;;16.80;99.90;;;;;;2095785;28;20055;-72
2022/05/25 04:27:38;;;;;;;3.88;3.00;;;16.90;99.90;;;;;;2096726;28;20070;-73
2022/05/25 04:28:39;;;;;;;4.13;2.60;;;16.90;99.90;;;;;;2096939;28;20036;-73
2022/05/25 04:29:40;;;;;;;5.38;3.30;;;16.80;99.90;;;;;;2096792;28;20056;-73
2022/05/25 04:30:40;;;;;;;3.50;2.70;;;16.80;99.90;;;;;;2095860;28;20038;-74
2022/05/25 04:31:41;;;;;;;4.90;3.00;;;16.80;99.90;;;;;;2095976;28;20032;-73
2022/05/25 04:32:42;;;;;;;6.10;3.20;;;16.70;99.90;;;;;;2096613;28;20503;-72
2022/05/25 04:33:43;;;;;;;3.60;2.65;;;16.70;99.90;;;;;;2096594;28;20021;-73
2022/05/25 04:34:44;;;;;;;4.15;3.15;;;16.70;99.90;;;;;;2096727;28;20223;-73
2022/05/25 04:35:44;;;;;;;4.85;2.97;;;16.80;99.90;;;;;;2096779;28;20097;-73
2022/05/25 04:36:45;;;;;;;4.68;3.20;;;17.00;99.90;;;;;;2096448;28;20024;-73
2022/05/25 04:37:48;;;;;;;5.15;3.30;;;17.00;99.90;;;;;;2096120;28;20040;-73
2022/05/25 04:38:49;;;;;;;5.03;3.45;;;17.20;99.90;;;;;;2096930;28;20032;-73
2022/05/25 04:39:50;;;;;;;5.22;3.50;;;17.30;99.90;;;;;;2096813;28;20112;-72
2022/05/25 04:40:51;;;;;;;7.00;3.53;;;17.30;99.90;;;;;;2096528;28;20041;-73
2022/05/25 04:41:51;;;;;;;11.60;4.07;;;17.40;99.90;;;;;;2096823;28;20029;-73
2022/05/25 04:42:54;;;;;;;9.60;3.95;;;17.60;99.90;;;;;;2096191;28;20033;-72
2022/05/25 04:43:55;;;;;;;7.72;4.20;;;17.70;99.90;;;;;;2096268;28;20588;-72
2022/05/25 04:45:03;;;;;;;5.78;3.60;;;17.90;99.90;;;;;;2096975;28;20020;-72
2022/05/25 04:46:12;;;;;;;6.78;3.88;;;18.10;99.30;;;;;;2096261;28;20032;-72
2022/05/25 04:47:13;;;;;;;4.85;3.45;;;18.50;98.00;;;;;;2087841;28;20154;-71
2022/05/25 04:48:15;;;;;;;6.10;3.30;;;18.80;96.80;;;;;;2087391;28;20103;-72
2022/05/25 04:49:15;;;;;;;5.40;3.13;;;19.00;95.30;;;;;;2096121;28;20048;-73
2022/05/25 04:50:21;;;;;;;6.75;3.05;;;19.20;93.90;;;;;;2096035;28;20395;-74
2022/05/25 04:51:22;;;;;;;5.78;3.35;;;19.40;92.90;;;;;;2096433;28;20119;-72
2022/05/25 04:52:22;;;;;;;3.90;2.90;;;19.60;91.30;;;;;;2095669;28;20033;-72
2022/05/25 04:53:27;;;;;;;4.72;2.75;;;19.70;90.80;;;;;;2096224;28;20024;-72
2022/05/25 04:54:28;;;;;;;4.78;2.55;;;19.70;90.20;;;;;;2096160;28;20043;-72
2022/05/25 04:58:18;;;;;;;4.40;2.60;;;19.70;89.60;;;;;;2096468;28;20082;-72
2022/05/25 04:59:18;;;;;;;3.30;2.50;;;19.80;89.30;;;;;;2097037;28;20617;-73
2022/05/25 05:00:19;;;;;;;3.33;2.25;;;19.80;89.30;;;;;;2095918;28;20024;-73
2022/05/25 05:01:20;;;;;;;3.15;2.05;;;19.90;89.00;;;;;;2088109;28;20070;-73
2022/05/25 05:02:21;;;;;;;3.33;2.50;;;19.90;88.50;;;;;;2096142;28;20024;-71
2022/05/25 05:03:23;;;;;;;3.95;2.22;;;19.80;88.50;;;;;;2096337;28;20029;-73
2022/05/25 05:04:26;;;;;;;7.10;2.47;;;19.80;89.30;;;;;;2096202;28;20058;-72
2022/05/25 05:05:26;;;;;;;3.35;2.40;;;19.70;89.40;;;;;;2096451;28;20032;-72
2022/05/25 05:06:27;;;;;;;3.95;2.60;;;19.60;89.60;;;;;;2096448;28;20032;-72
2022/05/25 05:07:33;;;;;;;6.00;2.80;;;19.40;90.00;;;;;;2096898;28;20037;-71
2022/05/25 05:08:35;;;;;;;3.80;2.78;;;19.20;90.30;;;;;;2096778;28;20028;-74
2022/05/25 05:09:37;;;;;;;3.65;2.72;;;19.10;90.00;;;;;;2096455;28;20056;-72
2022/05/25 05:10:38;;;;;;;3.95;2.50;;;18.90;90.10;;;;;;2096317;28;20486;-72
2022/05/25 05:11:38;;;;;;;4.15;2.67;;;18.70;90.50;;;;;;2096430;28;20032;-72
2022/05/25 05:12:40;;;;;;;4.20;2.60;;;18.70;90.80;;;;;;2096060;28;20503;-72
2022/05/25 05:13:42;;;;;;;3.22;2.50;;;18.60;90.90;;;;;;2096314;28;20123;-72
2022/05/25 05:14:44;;;;;;;3.50;2.75;;;18.60;91.00;;;;;;2088069;28;20036;-72
2022/05/25 05:15:48;;;;;;;4.53;2.70;;;18.70;91.10;;;;;;2096455;28;20037;-72
2022/05/25 05:16:57;;;;;;;4.05;2.50;;;18.80;91.20;;;;;;2097009;28;20035;-72
2022/05/25 05:18:07;;;;;;;3.95;2.40;;;19.10;90.60;;;;;;2096786;28;20047;-74
2022/05/25 05:19:33;;;;;;;3.13;1.95;;;19.40;89.40;;;;;;2091898;28;20463;-74
2022/05/25 05:20:39;;;;;;;3.63;2.15;;;19.80;86.60;;;;;;2088840;28;20036;-73
2022/05/25 05:21:39;;;;;;;2.78;2.08;;;20.00;84.80;;;;;;2096672;28;20498;-73
2022/05/25 05:22:40;;;;;;;4.55;2.35;;;20.20;83.60;;;;;;2096871;28;20039;-73
2022/05/25 05:23:41;;;;;;;2.60;2.22;;;20.20;82.60;;;;;;2096619;28;20028;-73
2022/05/25 05:24:42;;;;;;;3.80;2.40;;;20.20;82.70;;;;;;2096775;28;20024;-73
2022/05/25 05:25:43;;;;;;;3.03;1.92;;;20.20;82.00;;;;;;2095988;28;20581;-74
2022/05/25 05:26:43;;;;;;;4.05;2.10;;;20.10;82.10;;;;;;2095709;28;20521;-73
2022/05/25 05:27:45;;;;;;;3.30;1.92;;;20.20;81.80;;;;;;2095508;28;20025;-73
2022/05/25 05:28:45;;;;;;;2.70;2.00;;;20.20;82.30;;;;;;2096230;28;20024;-73
2022/05/25 05:29:46;;;;;;;5.97;2.35;;;20.00;81.50;;;;;;2095515;28;20638;-74
2022/05/25 05:30:53;;;;;;;4.53;2.30;;;20.00;81.30;;;;;;2095416;28;20482;-75
2022/05/25 05:31:53;;;;;;;4.50;2.05;;;19.90;81.80;;;;;;2096341;28;20111;-73
2022/05/25 05:32:54;;;;;;;3.78;2.13;;;19.60;82.40;;;;;;2096287;28;20032;-73
2022/05/25 05:33:55;;;;;;;2.25;2.03;;;19.40;83.20;;;;;;2095603;28;20593;-73
2022/05/25 05:34:56;;;;;;;4.68;2.35;;;19.30;83.70;;;;;;2096161;28;20064;-74
2022/05/25 05:36:06;;;;;;;3.65;2.30;;;19.10;83.80;;;;;;2096108;28;20039;-75
2022/05/25 05:37:21;;;;;;;3.88;2.38;;;18.90;84.40;;;;;;2096282;28;20117;-73
2022/05/25 05:38:23;;;;;;;3.03;2.20;;;18.70;85.80;;;;;;2095839;28;20032;-74
2022/05/25 05:39:27;;;;;;;4.63;2.65;;;18.60;86.60;;;;;;2096263;28;20098;-73
2022/05/25 05:40:29;;;;;;;3.20;2.40;;;18.60;86.90;;;;;;2088113;28;20036;-73
2022/05/25 05:41:35;;;;;;;4.15;2.58;;;18.50;87.50;;;;;;2096936;28;20063;-73
2022/05/25 05:42:40;;;;;;;6.43;3.28;;;18.50;87.80;;;;;;2096497;28;20099;-72